createdAt,value
2018-05-12T00:00:40.938Z,18.00
2018-05-12T00:01:43.759Z,21.00
2018-05-12T00:02:46.921Z,18.00
2018-05-12T00:03:50.025Z,22.00
2018-05-12T00:04:52.826Z,15.25
2018-05-12T00:05:55.582Z,22.75
2018-05-12T00:06:58.406Z,19.00
2018-05-12T00:08:01.194Z,20.50
2018-05-12T00:09:04.067Z,18.00
2018-05-12T00:10:07.805Z,22.75
2018-05-12T00:11:10.576Z,21.00
2018-05-12T00:12:13.347Z,16.75
2018-05-12T00:13:16.089Z,20.00
2018-05-12T00:14:18.854Z,21.00
2018-05-12T00:15:21.608Z,19.25
2018-05-12T00:16:24.720Z,21.25
2018-05-12T00:17:27.635Z,17.50
2018-05-12T00:18:30.431Z,16.00
2018-05-12T00:19:33.216Z,18.25
2018-05-12T00:20:36.291Z,19.75
2018-05-12T00:21:39.100Z,17.75
2018-05-12T00:22:42.381Z,21.75
2018-05-12T00:23:45.179Z,21.75
2018-05-12T00:24:47.945Z,20.50
2018-05-12T00:25:50.718Z,19.25
2018-05-12T00:26:53.492Z,19.25
2018-05-12T00:27:56.262Z,16.75
2018-05-12T00:28:59.563Z,20.50
2018-05-12T00:30:02.381Z,17.75
2018-05-12T00:31:05.169Z,17.50
2018-05-12T00:32:07.927Z,20.25
2018-05-12T00:33:10.735Z,18.00
2018-05-12T00:34:13.567Z,18.50
2018-05-12T00:35:16.810Z,19.75
2018-05-12T00:36:19.593Z,17.25
2018-05-12T00:37:22.346Z,17.75
2018-05-12T00:38:25.242Z,17.00
2018-05-12T00:39:28.087Z,21.25
2018-05-12T00:40:30.871Z,19.25
2018-05-12T00:41:34.041Z,18.00
2018-05-12T00:42:36.814Z,21.00
2018-05-12T00:43:39.608Z,18.00
2018-05-12T00:44:42.381Z,20.75
2018-05-12T00:45:45.142Z,16.75
2018-05-12T00:46:48.751Z,17.25
2018-05-12T00:47:51.878Z,21.00
2018-05-12T00:48:54.651Z,21.50
2018-05-12T00:49:57.434Z,18.00
2018-05-12T00:51:00.206Z,17.50
2018-05-12T00:52:03.012Z,19.75
2018-05-12T00:53:05.881Z,19.00
2018-05-12T00:54:09.072Z,18.50
2018-05-12T00:55:11.847Z,19.75
2018-05-12T00:56:14.617Z,22.25
2018-05-12T00:57:17.381Z,18.00
2018-05-12T00:58:20.143Z,18.00
2018-05-12T00:59:22.918Z,20.00
2018-05-12T01:00:26.534Z,20.50
2018-05-12T01:01:29.293Z,18.75
2018-05-12T01:02:32.101Z,21.75
2018-05-12T01:03:34.874Z,16.75
2018-05-12T01:04:37.678Z,18.00
2018-05-12T01:05:40.472Z,20.00
2018-05-12T01:06:43.759Z,20.25
2018-05-12T01:07:46.772Z,18.50
2018-05-12T01:08:49.529Z,19.75
2018-05-12T01:09:52.270Z,20.00
2018-05-12T01:10:55.044Z,18.75
2018-05-12T01:11:57.849Z,24.00
2018-05-12T01:13:00.984Z,20.50
2018-05-12T01:14:03.784Z,20.75
2018-05-12T01:15:06.546Z,18.00
2018-05-12T01:16:09.345Z,17.50
2018-05-12T01:17:12.119Z,18.50
2018-05-12T01:18:14.886Z,21.00
2018-05-12T01:19:18.033Z,18.75
2018-05-12T01:20:20.803Z,17.25
2018-05-12T01:21:23.611Z,18.50
2018-05-12T01:22:26.366Z,18.75
2018-05-12T01:23:29.127Z,24.50
2018-05-12T01:24:31.883Z,18.50
2018-05-12T01:25:35.024Z,20.50
2018-05-12T01:26:37.772Z,18.25
2018-05-12T01:27:40.542Z,17.00
2018-05-12T01:28:43.293Z,19.25
2018-05-12T01:29:46.069Z,20.00
2018-05-12T01:30:48.834Z,19.75
2018-05-12T01:31:52.107Z,19.25
2018-05-12T01:32:54.877Z,22.75
2018-05-12T01:33:57.674Z,20.00
2018-05-12T01:35:00.819Z,21.00
2018-05-12T01:36:03.589Z,20.00
2018-05-12T01:37:18.329Z,20.75
2018-05-12T01:38:21.151Z,17.00
2018-05-12T01:40:35.263Z,21.00
2018-05-12T01:41:38.811Z,20.00
2018-05-12T01:42:41.571Z,22.25
2018-05-12T01:43:44.708Z,20.00
2018-05-12T01:44:47.469Z,24.75
2018-05-12T01:45:51.290Z,22.25
2018-05-12T01:46:54.061Z,19.25
2018-05-12T01:47:56.877Z,22.25
2018-05-12T01:49:00.120Z,20.00
2018-05-12T01:50:03.259Z,19.50
2018-05-12T01:51:06.013Z,18.75
2018-05-12T01:52:08.782Z,18.25
2018-05-12T01:53:11.614Z,20.50
2018-05-12T01:54:14.380Z,19.75
2018-05-12T01:55:17.169Z,20.00
2018-05-12T01:56:20.320Z,20.25
2018-05-12T01:57:23.074Z,19.50
2018-05-12T01:58:25.899Z,17.75
2018-05-12T01:59:28.742Z,19.00
2018-05-12T02:00:31.526Z,20.75
2018-05-12T02:01:34.294Z,18.75
2018-05-12T02:02:37.529Z,21.75
2018-05-12T02:03:40.328Z,20.00
2018-05-12T02:04:43.096Z,22.25
2018-05-12T02:05:45.851Z,18.25
2018-05-12T02:06:48.606Z,17.75
2018-05-12T02:07:51.449Z,17.25
2018-05-12T02:08:54.608Z,20.00
2018-05-12T02:09:57.365Z,18.75
2018-05-12T02:11:00.129Z,17.00
2018-05-12T02:12:02.890Z,23.50
2018-05-12T02:13:05.644Z,23.50
2018-05-12T02:14:08.395Z,19.75
2018-05-12T02:15:11.579Z,17.50
2018-05-12T02:16:14.432Z,18.25
2018-05-12T02:17:17.183Z,21.50
2018-05-12T02:18:19.949Z,20.75
2018-05-12T02:19:22.766Z,21.75
2018-05-12T02:20:25.518Z,17.50
2018-05-12T02:21:28.611Z,20.00
2018-05-12T02:22:31.383Z,20.00
2018-05-12T02:23:34.157Z,22.25
2018-05-12T02:24:36.923Z,21.75
2018-05-12T02:25:39.679Z,20.50
2018-05-12T02:26:42.673Z,17.75
2018-05-12T02:27:45.875Z,24.75
2018-05-12T02:28:49.308Z,23.75
2018-05-12T02:29:53.047Z,18.00
2018-05-12T02:30:55.834Z,18.25
2018-05-12T02:31:58.593Z,19.50
2018-05-12T02:33:01.397Z,21.75
2018-05-12T02:34:04.511Z,22.25
2018-05-12T02:35:07.275Z,25.50
2018-05-12T02:36:10.048Z,20.00
2018-05-12T02:37:12.788Z,24.50
2018-05-12T02:38:16.466Z,20.00
2018-05-12T02:39:19.229Z,21.50
2018-05-12T02:40:22.379Z,21.75
2018-05-12T02:41:25.158Z,21.75
2018-05-12T02:42:27.981Z,22.00
2018-05-12T02:43:30.737Z,23.00
2018-05-12T02:44:33.507Z,22.50
2018-05-12T02:45:36.279Z,17.00
2018-05-12T02:46:39.435Z,22.00
2018-05-12T02:47:42.219Z,17.00
2018-05-12T02:48:45.012Z,22.00
2018-05-12T02:49:47.769Z,22.00
2018-05-12T02:50:50.588Z,22.50
2018-05-12T02:51:53.366Z,27.00
2018-05-12T02:52:56.448Z,22.50
2018-05-12T02:53:59.241Z,22.50
2018-05-12T02:55:02.015Z,22.25
2018-05-12T02:56:04.749Z,20.25
2018-05-12T02:57:07.548Z,20.50
2018-05-12T02:58:10.303Z,20.75
2018-05-12T02:59:13.491Z,17.00
2018-05-12T03:00:16.281Z,17.00
2018-05-12T03:01:19.029Z,19.50
2018-05-12T03:02:21.831Z,20.00
2018-05-12T03:03:24.643Z,19.25
2018-05-12T03:04:27.427Z,18.00
2018-05-12T03:05:31.894Z,17.25
2018-05-12T03:06:34.989Z,19.25
2018-05-12T03:07:37.791Z,19.75
2018-05-12T03:08:40.563Z,17.50
2018-05-12T03:09:48.333Z,18.50
2018-05-12T03:10:59.160Z,16.50
2018-05-12T03:12:02.731Z,21.25
2018-05-12T03:13:05.532Z,19.50
2018-05-12T03:14:08.304Z,17.50
2018-05-12T03:15:11.040Z,20.25
2018-05-12T03:16:13.819Z,21.25
2018-05-12T03:17:17.012Z,21.50
2018-05-12T03:18:19.779Z,23.25
2018-05-12T03:19:22.573Z,21.00
2018-05-12T03:20:25.337Z,19.25
2018-05-12T03:21:28.080Z,19.50
2018-05-12T03:22:30.841Z,23.50
2018-05-12T03:23:34.080Z,27.00
2018-05-12T03:24:37.023Z,22.75
2018-05-12T03:25:39.821Z,22.25
2018-05-12T03:26:42.771Z,17.50
2018-05-12T03:27:45.499Z,20.75
2018-05-12T03:28:48.242Z,21.25
2018-05-12T03:29:51.526Z,21.00
2018-05-12T03:30:54.308Z,20.25
2018-05-12T03:31:57.074Z,22.25
2018-05-12T03:32:59.850Z,21.50
2018-05-12T03:34:02.611Z,18.50
2018-05-12T03:35:05.408Z,29.50
2018-05-12T03:36:08.534Z,19.50
2018-05-12T03:37:11.280Z,20.25
2018-05-12T03:38:14.026Z,21.50
2018-05-12T03:39:17.519Z,23.75
2018-05-12T03:40:20.251Z,20.00
2018-05-12T03:41:23.058Z,18.00
2018-05-12T03:42:26.163Z,17.50
2018-05-12T03:43:29.447Z,20.50
2018-05-12T03:44:32.241Z,22.00
2018-05-12T03:45:35.405Z,20.25
2018-05-12T03:46:38.157Z,22.50
2018-05-12T03:47:40.913Z,19.50
2018-05-12T03:48:44.015Z,19.50
2018-05-12T03:49:46.819Z,19.00
2018-05-12T03:50:49.581Z,19.50
2018-05-12T03:51:52.343Z,20.00
2018-05-12T03:52:55.179Z,21.75
2018-05-12T03:53:58.149Z,20.50
2018-05-12T03:55:02.634Z,20.00
2018-05-12T03:56:05.443Z,20.50
2018-05-12T03:57:08.241Z,17.00
2018-05-12T03:58:10.996Z,19.50
2018-05-12T03:59:13.808Z,20.75
2018-05-12T04:00:16.667Z,19.75
2018-05-12T04:01:19.923Z,18.00
2018-05-12T04:02:22.956Z,21.75
2018-05-12T04:03:25.753Z,19.50
2018-05-12T04:04:28.566Z,21.00
2018-05-12T04:05:31.344Z,20.75
2018-05-12T04:06:34.119Z,19.50
2018-05-12T04:07:37.420Z,18.00
2018-05-12T04:08:40.264Z,20.75
2018-05-12T04:09:43.016Z,22.00
2018-05-12T04:10:45.799Z,21.00
2018-05-12T04:11:50.526Z,23.50
2018-05-12T04:12:53.289Z,20.25
2018-05-12T04:13:56.415Z,17.00
2018-05-12T04:14:59.202Z,20.75
2018-05-12T04:16:01.958Z,19.00
2018-05-12T04:17:04.780Z,19.75
2018-05-12T04:18:07.580Z,19.00
2018-05-12T04:19:10.344Z,22.25
2018-05-12T04:20:13.438Z,21.50
2018-05-12T04:21:16.265Z,19.25
2018-05-12T04:22:19.096Z,19.25
2018-05-12T04:23:21.894Z,24.25
2018-05-12T04:24:24.859Z,23.75
2018-05-12T04:25:27.820Z,22.50
2018-05-12T04:26:30.962Z,23.50
2018-05-12T04:27:33.777Z,19.50
2018-05-12T04:28:36.626Z,25.00
2018-05-12T04:29:39.418Z,22.00
2018-05-12T04:30:42.239Z,19.50
2018-05-12T04:31:44.980Z,19.75
2018-05-12T04:32:48.202Z,21.50
2018-05-12T04:33:50.925Z,19.50
2018-05-12T04:34:54.645Z,24.75
2018-05-12T04:35:57.421Z,17.50
2018-05-12T04:37:00.207Z,21.75
2018-05-12T04:38:03.105Z,18.75
2018-05-12T04:39:06.246Z,22.50
2018-05-12T04:40:09.059Z,19.25
2018-05-12T04:41:11.882Z,21.00
2018-05-12T04:42:14.936Z,24.25
2018-05-12T04:43:17.722Z,25.25
2018-05-12T04:44:20.577Z,24.75
2018-05-12T04:45:23.395Z,23.50
2018-05-12T04:46:26.151Z,24.00
2018-05-12T04:47:28.929Z,22.00
2018-05-12T04:48:31.701Z,27.25
2018-05-12T04:49:34.481Z,25.00
2018-05-12T04:50:37.645Z,23.00
2018-05-12T04:51:40.412Z,27.50
2018-05-12T04:52:43.202Z,30.25
2018-05-12T04:53:45.952Z,23.00
2018-05-12T04:54:48.799Z,30.50
2018-05-12T04:55:51.628Z,26.50
2018-05-12T04:56:54.914Z,25.00
2018-05-12T04:57:57.747Z,25.00
2018-05-12T04:59:00.701Z,23.75
2018-05-12T05:00:04.140Z,22.00
2018-05-12T05:01:06.932Z,27.00
2018-05-12T05:02:09.667Z,23.75
2018-05-12T05:03:12.961Z,23.75
2018-05-12T05:04:15.719Z,23.75
2018-05-12T05:05:18.480Z,23.00
2018-05-12T05:06:21.266Z,24.00
2018-05-12T05:07:23.998Z,23.50
2018-05-12T05:08:26.770Z,28.00
2018-05-12T05:09:30.825Z,28.25
2018-05-12T05:10:33.618Z,22.75
2018-05-12T05:11:36.442Z,24.50
2018-05-12T05:12:39.241Z,22.75
2018-05-12T05:13:42.016Z,24.75
2018-05-12T05:14:45.012Z,22.75
2018-05-12T05:15:48.175Z,27.50
2018-05-12T05:16:50.944Z,27.50
2018-05-12T05:17:53.736Z,27.00
2018-05-12T05:18:56.466Z,26.50
2018-05-12T05:19:59.251Z,26.75
2018-05-12T05:21:02.047Z,29.00
2018-05-12T05:22:05.177Z,29.00
2018-05-12T05:23:07.953Z,26.25
2018-05-12T05:24:10.703Z,30.75
2018-05-12T05:25:13.487Z,27.75
2018-05-12T05:26:16.252Z,19.50
2018-05-12T05:27:19.033Z,23.25
2018-05-12T05:28:22.216Z,24.75
2018-05-12T05:29:24.957Z,24.50
2018-05-12T05:30:27.754Z,24.25
2018-05-12T05:31:30.522Z,25.50
2018-05-12T05:32:33.292Z,23.50
2018-05-12T05:33:36.030Z,20.00
2018-05-12T05:34:39.201Z,21.75
2018-05-12T05:35:42.012Z,24.00
2018-05-12T05:36:44.827Z,21.50
2018-05-12T05:37:47.609Z,27.50
2018-05-12T05:38:50.363Z,22.00
2018-05-12T05:39:53.149Z,23.50
2018-05-12T05:40:56.270Z,22.50
2018-05-12T05:41:59.372Z,23.00
2018-05-12T05:43:02.259Z,20.00
2018-05-12T05:44:05.048Z,22.00
2018-05-12T05:45:07.830Z,18.00
2018-05-12T05:46:10.892Z,24.25
2018-05-12T05:47:14.127Z,24.25
2018-05-12T05:48:16.877Z,22.25
2018-05-12T05:49:19.679Z,23.75
2018-05-12T05:50:22.507Z,23.25
2018-05-12T05:51:25.383Z,20.75
2018-05-12T05:52:28.133Z,25.75
2018-05-12T05:53:31.338Z,22.75
2018-05-12T05:54:34.119Z,24.00
2018-05-12T05:55:36.893Z,20.25
2018-05-12T05:56:39.647Z,21.75
2018-05-12T05:57:42.502Z,21.25
2018-05-12T05:58:46.450Z,24.75
2018-05-12T05:59:49.815Z,23.25
2018-05-12T06:00:52.577Z,20.75
2018-05-12T06:01:55.434Z,22.75
2018-05-12T06:02:58.236Z,21.50
2018-05-12T06:04:00.998Z,23.50
2018-05-12T06:05:03.849Z,23.50
2018-05-12T06:06:07.293Z,23.50
2018-05-12T06:07:10.100Z,24.75
2018-05-12T06:08:12.846Z,21.75
2018-05-12T06:09:15.691Z,26.25
2018-05-12T06:10:18.438Z,24.50
2018-05-12T06:11:21.196Z,24.00
2018-05-12T06:12:24.427Z,25.25
2018-05-12T06:13:27.187Z,26.00
2018-05-12T06:14:29.941Z,26.00
2018-05-12T06:15:32.732Z,26.25
2018-05-12T06:16:35.633Z,27.75
2018-05-12T06:17:38.391Z,21.50
2018-05-12T06:18:41.562Z,22.50
2018-05-12T06:19:44.344Z,25.00
2018-05-12T06:20:47.108Z,25.00
2018-05-12T06:21:50.766Z,25.25
2018-05-12T06:22:53.603Z,25.75
2018-05-12T06:23:56.580Z,25.25
2018-05-12T06:24:59.790Z,22.00
2018-05-12T06:26:02.594Z,27.50
2018-05-12T06:27:05.414Z,23.75
2018-05-12T06:28:08.293Z,22.75
2018-05-12T06:29:11.070Z,26.25
2018-05-12T06:30:13.889Z,24.75
2018-05-12T06:31:17.044Z,25.75
2018-05-12T06:32:19.794Z,20.25
2018-05-12T06:33:22.584Z,23.00
2018-05-12T06:34:25.354Z,26.75
2018-05-12T06:35:28.201Z,26.25
2018-05-12T06:36:30.975Z,24.00
2018-05-12T06:37:34.524Z,23.75
2018-05-12T06:38:37.319Z,25.50
2018-05-12T06:39:40.079Z,24.00
2018-05-12T06:40:42.843Z,26.50
2018-05-12T06:41:45.718Z,22.00
2018-05-12T06:42:48.497Z,23.00
2018-05-12T06:43:51.742Z,24.50
2018-05-12T06:44:54.545Z,21.50
2018-05-12T06:45:57.348Z,23.75
2018-05-12T06:47:00.131Z,25.25
2018-05-12T06:48:03.724Z,22.25
2018-05-12T06:49:07.176Z,24.00
2018-05-12T06:50:10.367Z,23.50
2018-05-12T06:51:13.174Z,24.50
2018-05-12T06:52:16.845Z,23.50
2018-05-12T06:53:19.652Z,25.00
2018-05-12T06:54:22.408Z,24.75
2018-05-12T06:55:26.130Z,24.25
2018-05-12T06:56:29.660Z,26.25
2018-05-12T06:57:32.423Z,22.50
2018-05-12T06:58:35.249Z,22.00
2018-05-12T06:59:38.131Z,22.75
2018-05-12T07:00:40.904Z,28.75
2018-05-12T07:01:43.859Z,28.25
2018-05-12T07:02:47.272Z,28.75
2018-05-12T07:03:50.138Z,23.25
2018-05-12T07:04:53.802Z,25.75
2018-05-12T07:05:56.610Z,30.75
2018-05-12T07:06:59.434Z,25.75
2018-05-12T07:08:02.289Z,26.50
2018-05-12T07:09:05.338Z,27.00
2018-05-12T07:10:08.141Z,24.75
2018-05-12T07:11:10.882Z,26.75
2018-05-12T07:12:13.713Z,28.50
2018-05-12T07:13:16.479Z,26.75
2018-05-12T07:14:19.239Z,27.00
2018-05-12T07:15:22.309Z,25.75
2018-05-12T07:16:25.137Z,27.75
2018-05-12T07:17:27.954Z,30.25
2018-05-12T07:18:30.733Z,27.50
2018-05-12T07:19:33.531Z,23.75
2018-05-12T07:20:36.386Z,27.25
2018-05-12T07:21:39.505Z,29.00
2018-05-12T07:22:42.263Z,24.50
2018-05-12T07:23:44.997Z,25.25
2018-05-12T07:24:47.764Z,25.75
2018-05-12T07:25:50.593Z,24.75
2018-05-12T07:26:53.372Z,26.00
2018-05-12T07:27:56.524Z,26.50
2018-05-12T07:28:59.352Z,26.00
2018-05-12T07:30:02.150Z,21.50
2018-05-12T07:31:04.925Z,25.00
2018-05-12T07:32:07.745Z,22.75
2018-05-12T07:33:10.605Z,20.75
2018-05-12T07:34:13.754Z,24.50
2018-05-12T07:35:16.893Z,22.25
2018-05-12T07:36:19.924Z,22.50
2018-05-12T07:37:22.849Z,22.00
2018-05-12T07:38:25.670Z,32.25
2018-05-12T07:39:28.913Z,27.50
2018-05-12T07:40:32.705Z,26.00
2018-05-12T07:41:35.936Z,26.25
2018-05-12T07:42:40.742Z,25.50
2018-05-12T07:43:44.311Z,25.75
2018-05-12T07:44:47.138Z,22.00
2018-05-12T07:45:51.030Z,22.50
2018-05-12T07:46:54.126Z,23.25
2018-05-12T07:47:56.907Z,24.50
2018-05-12T07:48:59.716Z,22.25
2018-05-12T07:50:02.587Z,25.00
2018-05-12T07:51:05.425Z,26.50
2018-05-12T07:52:08.297Z,27.25
2018-05-12T07:53:11.545Z,23.50
2018-05-12T07:54:14.363Z,21.75
2018-05-12T07:55:17.243Z,26.75
2018-05-12T07:56:20.055Z,22.75
2018-05-12T07:57:22.878Z,21.00
2018-05-12T07:58:25.882Z,25.75
2018-05-12T07:59:28.767Z,25.50
2018-05-12T08:00:31.593Z,23.75
2018-05-12T08:01:34.341Z,25.25
2018-05-12T08:02:37.899Z,21.50
2018-05-12T08:03:40.721Z,22.00
2018-05-12T08:04:43.787Z,21.00
2018-05-12T08:05:46.807Z,23.00
2018-05-12T08:06:49.685Z,22.00
2018-05-12T08:07:52.519Z,22.25
2018-05-12T08:08:55.315Z,24.00
2018-05-12T08:09:58.198Z,26.75
2018-05-12T08:11:01.563Z,27.00
2018-05-12T08:12:04.353Z,28.75
2018-05-12T08:13:07.108Z,25.25
2018-05-12T08:14:09.890Z,23.75
2018-05-12T08:15:12.663Z,22.25
2018-05-12T08:16:15.901Z,20.75
2018-05-12T08:17:19.155Z,24.50
2018-05-12T08:18:22.868Z,24.25
2018-05-12T08:19:26.141Z,23.50
2018-05-12T08:20:28.934Z,21.25
2018-05-12T08:21:31.768Z,23.25
2018-05-12T08:22:34.626Z,20.50
2018-05-12T08:23:37.921Z,23.00
2018-05-12T08:24:40.936Z,29.50
2018-05-12T08:25:43.730Z,23.75
2018-05-12T08:26:46.625Z,26.00
2018-05-12T08:27:49.747Z,25.50
2018-05-12T08:28:52.647Z,23.75
2018-05-12T08:29:55.838Z,22.75
2018-05-12T08:30:58.880Z,25.25
2018-05-12T08:32:01.863Z,23.00
2018-05-12T08:33:04.781Z,21.50
2018-05-12T08:34:07.583Z,23.75
2018-05-12T08:35:10.411Z,21.75
2018-05-12T08:36:13.503Z,23.25
2018-05-12T08:37:16.307Z,20.50
2018-05-12T08:38:19.139Z,18.00
2018-05-12T08:39:22.004Z,19.25
2018-05-12T08:40:24.851Z,19.00
2018-05-12T08:41:27.680Z,19.00
2018-05-12T08:42:30.791Z,20.50
2018-05-12T08:43:33.583Z,20.00
2018-05-12T08:44:36.384Z,20.75
2018-05-12T08:45:39.178Z,20.50
2018-05-12T08:46:41.948Z,18.25
2018-05-12T08:47:44.771Z,22.75
2018-05-12T08:48:47.983Z,22.50
2018-05-12T08:49:50.720Z,18.00
2018-05-12T08:50:53.670Z,22.00
2018-05-12T08:51:56.455Z,18.75
2018-05-12T08:52:59.349Z,16.50
2018-05-12T08:54:03.243Z,16.50
2018-05-12T08:55:07.411Z,15.75
2018-05-12T08:56:10.286Z,18.50
2018-05-12T08:57:13.087Z,16.75
2018-05-12T08:58:15.898Z,20.25
2018-05-12T08:59:19.018Z,18.00
2018-05-12T09:00:22.074Z,26.00
2018-05-12T09:01:25.477Z,18.75
2018-05-12T09:02:28.267Z,22.00
2018-05-12T09:03:31.038Z,24.50
2018-05-12T09:04:33.809Z,24.75
2018-05-12T09:05:36.687Z,22.25
2018-05-12T09:06:39.507Z,22.00
2018-05-12T09:07:42.608Z,23.50
2018-05-12T09:08:45.367Z,20.50
2018-05-12T09:09:48.126Z,20.00
2018-05-12T09:10:51.151Z,18.50
2018-05-12T09:11:53.906Z,17.00
2018-05-12T09:12:56.666Z,21.25
2018-05-12T09:14:00.120Z,20.75
2018-05-12T09:15:03.047Z,20.50
2018-05-12T09:16:05.835Z,21.00
2018-05-12T09:17:11.109Z,20.25
2018-05-12T09:18:13.962Z,19.75
2018-05-12T09:19:17.134Z,22.00
2018-05-12T09:20:20.266Z,18.25
2018-05-12T09:21:23.279Z,21.00
2018-05-12T09:22:26.309Z,21.25
2018-05-12T09:23:29.114Z,16.50
2018-05-12T09:24:31.936Z,18.00
2018-05-12T09:25:34.751Z,17.00
2018-05-12T09:26:37.862Z,17.50
2018-05-12T09:27:40.854Z,19.50
2018-05-12T09:28:43.933Z,18.50
2018-05-12T09:29:46.715Z,20.00
2018-05-12T09:30:50.616Z,16.25
2018-05-12T09:31:53.475Z,19.50
2018-05-12T09:32:56.604Z,16.00
2018-05-12T09:34:00.428Z,21.25
2018-05-12T09:35:03.354Z,22.75
2018-05-12T09:36:06.519Z,14.00
2018-05-12T09:37:09.298Z,17.00
2018-05-12T09:38:12.128Z,21.50
2018-05-12T09:39:15.191Z,18.50
2018-05-12T09:40:18.000Z,19.75
2018-05-12T09:41:20.780Z,16.50
2018-05-12T09:42:23.660Z,19.25
2018-05-12T09:43:26.359Z,17.25
2018-05-12T09:44:29.166Z,21.00
2018-05-12T09:45:32.300Z,15.00
2018-05-12T09:46:35.944Z,13.50
2018-05-12T09:47:38.778Z,16.75
2018-05-12T09:48:41.548Z,18.00
2018-05-12T09:49:44.358Z,16.50
2018-05-12T09:50:47.150Z,17.50
2018-05-12T09:51:50.239Z,21.00
2018-05-12T09:52:53.011Z,16.75
2018-05-12T09:53:55.758Z,21.75
2018-05-12T09:54:58.565Z,17.75
2018-05-12T09:56:01.437Z,20.00
2018-05-12T09:57:04.251Z,21.00
2018-05-12T09:58:07.515Z,19.00
2018-05-12T09:59:10.306Z,22.00
2018-05-12T10:00:13.735Z,17.00
2018-05-12T10:01:17.563Z,18.75
2018-05-12T10:02:20.304Z,16.50
2018-05-12T10:03:23.103Z,16.00
2018-05-12T10:04:27.078Z,16.00
2018-05-12T10:05:30.448Z,18.00
2018-05-12T10:06:33.356Z,14.00
2018-05-12T10:07:36.313Z,15.25
2018-05-12T10:08:39.157Z,13.50
2018-05-12T10:09:44.064Z,22.75
2018-05-12T10:10:47.091Z,19.75
2018-05-12T10:11:49.863Z,18.25
2018-05-12T10:12:52.717Z,16.00
2018-05-12T10:13:55.507Z,16.00
2018-05-12T10:14:58.286Z,16.50
2018-05-12T10:16:01.092Z,22.25
2018-05-12T10:17:07.006Z,20.75
2018-05-12T10:18:09.950Z,17.00
2018-05-12T10:19:12.734Z,15.75
2018-05-12T10:20:16.015Z,18.50
2018-05-12T10:21:18.803Z,19.00
2018-05-12T10:22:22.035Z,16.00
2018-05-12T10:23:25.345Z,18.50
2018-05-12T10:24:28.107Z,17.50
2018-05-12T10:25:30.991Z,16.75
2018-05-12T10:26:34.206Z,13.50
2018-05-12T10:27:37.055Z,16.00
2018-05-12T10:28:39.900Z,16.75
2018-05-12T10:29:43.071Z,15.25
2018-05-12T10:30:45.833Z,17.25
2018-05-12T10:31:48.657Z,15.25
2018-05-12T10:32:51.418Z,16.00
2018-05-12T10:33:54.369Z,16.00
2018-05-12T10:34:57.230Z,16.75
2018-05-12T10:36:00.456Z,16.50
2018-05-12T10:38:23.340Z,17.75
2018-05-12T10:39:26.151Z,17.50
2018-05-12T10:40:28.945Z,15.00
2018-05-12T10:41:31.716Z,15.00
2018-05-12T10:42:34.794Z,13.00
2018-05-12T10:43:37.562Z,16.25
2018-05-12T10:44:40.406Z,13.75
2018-05-12T10:45:43.219Z,15.25
2018-05-12T10:46:46.290Z,18.00
2018-05-12T10:47:49.722Z,15.50
2018-05-12T10:48:52.804Z,13.75
2018-05-12T10:49:55.606Z,18.00
2018-05-12T10:50:58.499Z,17.25
2018-05-12T10:52:01.532Z,17.25
2018-05-12T10:53:04.751Z,16.75
2018-05-12T10:54:07.577Z,14.50
2018-05-12T10:55:10.933Z,15.00
2018-05-12T10:56:13.789Z,17.00
2018-05-12T10:57:17.668Z,15.00
2018-05-12T10:58:20.454Z,18.00
2018-05-12T10:59:24.551Z,15.75
2018-05-12T11:00:27.346Z,18.00
2018-05-12T11:01:30.414Z,16.50
2018-05-12T11:02:33.909Z,17.50
2018-05-12T11:03:37.819Z,17.25
2018-05-12T11:04:40.761Z,13.75
2018-05-12T11:05:43.992Z,15.25
2018-05-12T11:06:46.945Z,15.75
2018-05-12T11:07:51.024Z,18.25
2018-05-12T11:08:54.476Z,17.75
2018-05-12T11:09:57.349Z,16.25
2018-05-12T11:11:00.552Z,16.50
2018-05-12T11:12:03.633Z,18.00
2018-05-12T11:13:06.664Z,16.75
2018-05-12T11:14:09.876Z,18.25
2018-05-12T11:15:12.732Z,17.50
2018-05-12T11:16:15.736Z,20.00
2018-05-12T11:17:18.530Z,19.25
2018-05-12T11:18:21.310Z,15.00
2018-05-12T11:19:24.091Z,20.00
2018-05-12T11:20:27.151Z,15.50
2018-05-12T11:21:30.032Z,15.50
2018-05-12T11:22:32.796Z,16.00
2018-05-12T11:23:35.682Z,17.00
2018-05-12T11:24:38.488Z,19.50
2018-05-12T11:25:41.360Z,17.25
2018-05-12T11:26:44.699Z,18.25
2018-05-12T11:27:47.534Z,19.25
2018-05-12T11:28:50.306Z,16.50
2018-05-12T11:29:53.156Z,19.75
2018-05-12T11:30:56.139Z,17.25
2018-05-12T11:31:58.905Z,16.00
2018-05-12T11:33:02.314Z,15.75
2018-05-12T11:34:06.054Z,16.25
2018-05-12T11:35:08.879Z,19.75
2018-05-12T11:36:11.669Z,16.25
2018-05-12T11:37:14.437Z,20.25
2018-05-12T11:38:17.238Z,14.50
2018-05-12T11:39:20.345Z,14.00
2018-05-12T11:40:23.116Z,12.50
2018-05-12T11:41:26.709Z,16.00
2018-05-12T11:42:29.504Z,16.50
2018-05-12T11:43:32.310Z,18.25
2018-05-12T11:44:35.161Z,14.00
2018-05-12T11:45:38.942Z,15.00
2018-05-12T11:46:41.791Z,16.50
2018-05-12T11:47:45.354Z,17.50
2018-05-12T11:48:48.137Z,17.50
2018-05-12T11:49:50.991Z,14.75
2018-05-12T11:50:53.809Z,14.00
2018-05-12T11:51:56.932Z,17.50
2018-05-12T11:52:59.727Z,16.25
2018-05-12T11:54:03.855Z,17.75
2018-05-12T11:55:06.885Z,16.00
2018-05-12T11:56:09.928Z,16.00
2018-05-12T11:57:12.749Z,17.25
2018-05-12T11:58:16.097Z,14.00
2018-05-12T11:59:18.918Z,16.00
2018-05-12T12:00:22.667Z,14.00
2018-05-12T12:01:25.460Z,17.00
2018-05-12T12:02:28.376Z,13.25
2018-05-12T12:03:31.208Z,16.50
2018-05-12T12:04:34.556Z,14.75
2018-05-12T12:05:38.236Z,17.25
2018-05-12T12:06:41.065Z,18.75
2018-05-12T12:07:45.177Z,14.25
2018-05-12T12:08:47.989Z,15.25
2018-05-12T12:09:51.151Z,14.50
2018-05-12T12:10:54.532Z,16.25
2018-05-12T12:11:57.287Z,15.00
2018-05-12T12:13:00.159Z,16.75
2018-05-12T12:14:03.209Z,16.25
2018-05-12T12:15:06.142Z,15.50
2018-05-12T12:16:09.889Z,14.50
2018-05-12T12:17:13.378Z,15.00
2018-05-12T12:18:16.183Z,15.75
2018-05-12T12:19:19.194Z,16.75
2018-05-12T12:20:23.372Z,17.00
2018-05-12T12:21:26.867Z,15.50
2018-05-12T12:22:29.686Z,15.00
2018-05-12T12:23:33.114Z,16.00
2018-05-12T12:24:36.017Z,15.00
2018-05-12T12:25:40.714Z,14.50
2018-05-12T12:26:43.736Z,13.00
2018-05-12T12:27:46.632Z,13.75
2018-05-12T12:28:49.564Z,14.50
2018-05-12T12:29:53.839Z,16.00
2018-05-12T12:30:56.937Z,13.00
2018-05-12T12:31:59.719Z,17.75
2018-05-12T12:33:02.693Z,15.50
2018-05-12T12:34:06.503Z,18.25
2018-05-12T12:35:09.322Z,16.25
2018-05-12T12:36:12.491Z,15.75
2018-05-12T12:37:15.367Z,16.00
2018-05-12T12:38:18.326Z,16.00
2018-05-12T12:39:21.228Z,14.50
2018-05-12T12:40:24.016Z,13.75
2018-05-12T12:41:27.007Z,16.00
2018-05-12T12:42:30.346Z,15.00
2018-05-12T12:43:33.155Z,16.25
2018-05-12T12:44:35.990Z,15.50
2018-05-12T12:45:38.815Z,17.25
2018-05-12T12:46:41.652Z,13.50
2018-05-12T12:47:44.410Z,14.75
2018-05-12T12:48:47.528Z,12.75
2018-05-12T12:49:50.290Z,13.00
2018-05-12T12:50:53.884Z,14.50
2018-05-12T12:51:56.655Z,14.50
2018-05-12T12:52:59.413Z,14.00
2018-05-12T12:54:02.207Z,16.00
2018-05-12T12:55:06.046Z,14.00
2018-05-12T12:56:08.867Z,13.00
2018-05-12T12:57:11.777Z,12.25
2018-05-12T12:58:15.056Z,14.25
2018-05-12T12:59:17.814Z,16.00
2018-05-12T13:00:20.633Z,15.75
2018-05-12T13:01:23.406Z,11.00
2018-05-12T13:02:26.235Z,15.25
2018-05-12T13:03:29.567Z,13.50
2018-05-12T13:04:32.367Z,15.50
2018-05-12T13:05:35.143Z,14.00
2018-05-12T13:06:38.215Z,16.50
2018-05-12T13:07:41.069Z,13.00
2018-05-12T13:08:43.820Z,16.00
2018-05-12T13:09:46.601Z,15.50
2018-05-12T13:10:49.909Z,13.75
2018-05-12T13:11:52.752Z,12.75
2018-05-12T13:12:55.881Z,17.00
2018-05-12T13:13:59.435Z,14.00
2018-05-12T13:15:02.252Z,14.75
2018-05-12T13:16:05.128Z,14.75
2018-05-12T13:17:07.935Z,13.25
2018-05-12T13:18:10.758Z,13.25
2018-05-12T13:19:14.534Z,15.75
2018-05-12T13:20:17.445Z,12.00
2018-05-12T13:21:20.217Z,12.50
2018-05-12T13:22:23.023Z,15.50
2018-05-12T13:23:26.515Z,16.50
2018-05-12T13:24:29.288Z,15.25
2018-05-12T13:25:32.338Z,17.25
2018-05-12T13:26:35.390Z,13.50
2018-05-12T13:27:38.157Z,17.00
2018-05-12T13:28:40.962Z,13.00
2018-05-12T13:29:43.839Z,13.00
2018-05-12T13:30:47.230Z,13.50
2018-05-12T13:31:50.491Z,13.50
2018-05-12T13:32:53.636Z,13.00
2018-05-12T13:33:57.868Z,13.00